createdAt,value
2023-02-24T00:03:36.876Z,5.22
2023-02-24T00:08:33.686Z,7.80
2023-02-24T00:13:30.996Z,8.07
2023-02-24T00:18:27.857Z,8.13
2023-02-24T00:23:25.433Z,5.80
2023-02-24T00:28:22.194Z,7.78
2023-02-24T00:33:22.930Z,9.02
2023-02-24T00:38:19.975Z,6.25
2023-02-24T00:43:17.617Z,7.75
2023-02-24T00:48:15.276Z,9.27
2023-02-24T00:53:12.191Z,4.88
2023-02-24T00:58:09.251Z,9.52
2023-02-24T01:03:07.225Z,8.35
2023-02-24T01:08:04.485Z,12.25
2023-02-24T01:13:02.003Z,9.98
2023-02-24T01:17:58.846Z,6.28
2023-02-24T01:22:57.337Z,8.75
2023-02-24T01:27:54.477Z,6.30
2023-02-24T01:32:51.503Z,6.68
2023-02-24T01:37:48.770Z,8.27
2023-02-24T01:42:48.823Z,9.18
2023-02-24T01:47:47.317Z,8.48
2023-02-24T01:52:47.695Z,15.85
2023-02-24T01:57:45.613Z,8.93
2023-02-24T02:02:50.883Z,10.52
2023-02-24T02:07:50.111Z,13.52
2023-02-24T02:12:47.629Z,6.45
2023-02-24T02:17:59.375Z,10.00
2023-02-24T02:23:18.020Z,15.02
2023-02-24T02:28:53.720Z,8.23
2023-02-24T02:34:11.985Z,11.20
2023-02-24T02:39:16.432Z,7.75
2023-02-24T02:44:19.939Z,9.60
2023-02-24T02:49:23.519Z,6.32
2023-02-24T02:54:27.402Z,6.45
2023-02-24T02:59:27.689Z,8.55
2023-02-24T03:04:26.496Z,7.38
2023-02-24T03:09:28.855Z,10.48
2023-02-24T03:14:29.270Z,8.60
2023-02-24T03:19:36.703Z,11.02
2023-02-24T03:24:38.240Z,10.85
2023-02-24T03:29:44.326Z,9.77
2023-02-24T03:34:50.643Z,12.18
2023-02-24T03:39:50.730Z,16.60
2023-02-24T03:44:51.757Z,12.23
2023-02-24T03:49:50.108Z,9.68
2023-02-24T03:55:08.949Z,11.07
2023-02-24T04:00:21.853Z,12.02
2023-02-24T04:05:26.940Z,11.10
2023-02-24T04:10:34.014Z,11.25
2023-02-24T04:15:39.744Z,13.13
2023-02-24T04:20:40.442Z,10.30
2023-02-24T04:25:42.999Z,11.10
2023-02-24T04:30:42.194Z,14.40
2023-02-24T04:35:41.086Z,14.50
2023-02-24T04:40:40.286Z,14.45
2023-02-24T04:45:39.483Z,16.85
2023-02-24T04:50:37.779Z,16.38
2023-02-24T04:55:39.457Z,16.35
2023-02-24T05:00:39.738Z,9.77
2023-02-24T05:05:36.801Z,11.13
2023-02-24T05:10:39.823Z,11.85
2023-02-24T05:15:41.402Z,16.23
2023-02-24T05:21:01.644Z,16.77
2023-02-24T05:26:00.050Z,24.08
2023-02-24T05:31:05.382Z,18.70
2023-02-24T05:36:05.699Z,14.55
2023-02-24T05:41:07.010Z,15.18
2023-02-24T05:46:04.379Z,14.70
2023-02-24T05:51:04.285Z,8.80
2023-02-24T05:56:05.027Z,19.15
2023-02-24T06:01:15.648Z,14.27
2023-02-24T06:06:12.874Z,15.05
2023-02-24T06:11:10.158Z,16.15
2023-02-24T06:16:12.165Z,15.50
2023-02-24T06:21:11.892Z,17.02
2023-02-24T06:26:12.434Z,16.92
2023-02-24T06:31:10.419Z,10.93
2023-02-24T06:36:08.271Z,10.23
2023-02-24T06:41:10.249Z,16.23
2023-02-24T06:46:11.934Z,12.55
2023-02-24T06:51:19.923Z,17.88
2023-02-24T06:56:19.297Z,10.00
2023-02-24T07:01:19.926Z,9.25
2023-02-24T07:06:23.856Z,14.63
2023-02-24T07:11:21.503Z,12.27
2023-02-24T07:16:24.525Z,9.57
2023-02-24T07:21:23.289Z,13.95
2023-02-24T07:26:22.586Z,15.48
2023-02-24T07:31:22.297Z,11.98
2023-02-24T07:36:22.551Z,12.25
2023-02-24T07:41:22.311Z,16.48
2023-02-24T07:46:23.888Z,11.55
2023-02-24T07:51:36.428Z,13.90
2023-02-24T07:56:33.488Z,14.38
2023-02-24T08:01:50.322Z,15.50
2023-02-24T08:06:50.808Z,16.88
2023-02-24T08:11:51.641Z,11.23
2023-02-24T08:16:51.397Z,10.98
2023-02-24T08:21:50.151Z,18.42
2023-02-24T08:27:03.688Z,16.67
2023-02-24T08:32:01.573Z,16.88
2023-02-24T08:36:58.789Z,15.15
2023-02-24T08:41:56.864Z,14.82
2023-02-24T08:46:54.562Z,12.88
2023-02-24T08:51:53.022Z,18.80
2023-02-24T08:56:55.225Z,8.93
2023-02-24T09:02:10.158Z,16.52
2023-02-24T09:07:14.776Z,11.47
2023-02-24T09:12:21.165Z,11.60
2023-02-24T09:17:20.485Z,17.00
2023-02-24T09:22:30.837Z,12.25
2023-02-24T09:27:28.670Z,19.05
2023-02-24T09:32:34.696Z,16.05
2023-02-24T09:37:45.474Z,14.48
2023-02-24T09:42:57.701Z,14.98
2023-02-24T09:47:57.848Z,12.00
2023-02-24T09:53:16.206Z,11.25
2023-02-24T09:58:29.387Z,13.55
2023-02-24T10:03:47.343Z,13.48
2023-02-24T10:08:51.567Z,16.13
2023-02-24T10:14:03.423Z,11.70
2023-02-24T10:19:14.474Z,13.90
2023-02-24T10:24:22.377Z,11.60
2023-02-24T10:29:35.424Z,11.20
2023-02-24T10:34:33.607Z,10.88
2023-02-24T10:39:32.795Z,17.30
2023-02-24T10:44:35.464Z,15.10
2023-02-24T10:49:42.409Z,15.80
2023-02-24T10:55:04.442Z,14.95
2023-02-24T11:00:19.650Z,17.13
2023-02-24T11:05:37.393Z,12.85
2023-02-24T11:10:52.395Z,15.98
2023-02-24T11:16:12.466Z,13.53
2023-02-24T11:21:12.386Z,14.98
2023-02-24T11:26:16.511Z,13.43
2023-02-24T11:31:28.021Z,17.50
2023-02-24T11:36:33.332Z,15.90
2023-02-24T11:41:36.317Z,14.25
2023-02-24T11:46:41.120Z,15.30
2023-02-24T11:51:38.394Z,14.37
2023-02-24T11:56:41.664Z,18.85
2023-02-24T12:01:43.800Z,14.48
2023-02-24T12:06:52.990Z,17.30
2023-02-24T12:11:56.866Z,11.40
2023-02-24T12:17:03.325Z,17.63
2023-02-24T12:22:14.334Z,12.35
2023-02-24T12:27:25.967Z,10.02
2023-02-24T12:32:36.282Z,11.45
2023-02-24T12:37:54.023Z,15.35
2023-02-24T12:43:03.734Z,13.70
2023-02-24T12:48:11.806Z,11.90
2023-02-24T12:53:18.216Z,13.63
2023-02-24T12:58:21.794Z,10.90
2023-02-24T13:03:35.611Z,9.82
2023-02-24T13:08:44.705Z,9.13
2023-02-24T13:13:50.099Z,10.70
2023-02-24T13:23:53.301Z,14.15
2023-02-24T13:28:59.728Z,19.00
2023-02-24T13:33:56.710Z,13.32
2023-02-24T13:39:08.146Z,15.13
2023-02-24T13:44:26.662Z,12.50
2023-02-24T13:49:32.622Z,16.00
2023-02-24T13:54:53.102Z,15.65
2023-02-24T14:00:09.573Z,17.80
2023-02-24T14:05:13.552Z,13.25
2023-02-24T14:10:18.499Z,16.25
2023-02-24T14:15:20.502Z,12.85
2023-02-24T14:20:23.284Z,15.98
2023-02-24T14:25:22.750Z,16.02
2023-02-24T14:30:28.095Z,13.95
2023-02-24T14:35:33.555Z,15.13
2023-02-24T14:45:30.233Z,16.58
2023-02-24T14:50:30.663Z,14.68
2023-02-24T14:55:31.427Z,19.08
2023-02-24T15:00:34.647Z,14.63
2023-02-24T15:05:32.124Z,14.75
2023-02-24T15:10:31.300Z,17.38
2023-02-24T15:15:34.603Z,12.05
2023-02-24T15:20:35.614Z,16.33
2023-02-24T15:25:43.260Z,17.00
2023-02-24T15:30:58.273Z,15.07
2023-02-24T15:35:58.876Z,12.27
2023-02-24T15:40:59.044Z,16.38
2023-02-24T15:45:56.815Z,19.17
2023-02-24T15:50:54.717Z,19.27
2023-02-24T15:55:53.857Z,16.42
2023-02-24T16:01:00.438Z,14.98
2023-02-24T16:05:58.740Z,15.43
2023-02-24T16:10:55.839Z,19.23
2023-02-24T16:15:53.823Z,20.30
2023-02-24T16:20:53.742Z,17.88
2023-02-24T16:25:56.461Z,19.35
2023-02-24T16:30:54.128Z,23.75
2023-02-24T16:35:52.851Z,17.83
2023-02-24T16:40:50.402Z,19.20
2023-02-24T16:45:47.601Z,18.40
2023-02-24T16:50:44.729Z,19.20
2023-02-24T16:55:43.028Z,20.60
2023-02-24T17:00:41.634Z,27.52
2023-02-24T17:05:38.615Z,24.02
2023-02-24T17:10:38.543Z,25.05
2023-02-24T17:15:36.096Z,26.00
2023-02-24T17:20:34.077Z,27.75
2023-02-24T17:25:31.977Z,25.17
2023-02-24T17:30:32.716Z,23.38
2023-02-24T17:35:30.651Z,23.25
2023-02-24T17:40:27.990Z,24.17
2023-02-24T17:45:25.276Z,25.67
2023-02-24T17:50:22.288Z,28.73
2023-02-24T17:55:21.779Z,20.17
2023-02-24T18:00:18.911Z,23.10
2023-02-24T18:05:15.996Z,24.15
2023-02-24T18:10:13.258Z,21.88
2023-02-24T18:15:11.770Z,25.92
2023-02-24T18:20:11.692Z,25.00
2023-02-24T18:25:10.399Z,22.33
2023-02-24T18:30:09.573Z,25.02
2023-02-24T18:35:08.709Z,25.08
2023-02-24T18:40:07.300Z,27.00
2023-02-24T18:45:04.945Z,28.02
2023-02-24T18:50:01.976Z,27.40
2023-02-24T18:54:59.580Z,31.38
2023-02-24T18:59:56.672Z,26.70
2023-02-24T19:04:54.751Z,28.15
2023-02-24T19:10:01.394Z,28.70
2023-02-24T19:14:58.251Z,32.63
2023-02-24T19:19:55.074Z,32.67
2023-02-24T19:24:51.860Z,35.00
2023-02-24T19:29:49.841Z,34.20
2023-02-24T19:34:47.725Z,42.05
2023-02-24T19:39:44.768Z,43.17
2023-02-24T19:44:41.651Z,56.95
2023-02-24T19:49:42.136Z,51.30
2023-02-24T19:54:39.213Z,47.13
2023-02-24T19:59:36.150Z,52.95
2023-02-24T20:04:33.727Z,53.72
2023-02-24T20:09:32.234Z,52.08
2023-02-24T20:14:32.613Z,55.08
2023-02-24T20:19:33.784Z,54.33
2023-02-24T20:24:34.705Z,60.80
2023-02-24T20:29:35.274Z,63.13
2023-02-24T20:34:41.253Z,50.90
2023-02-24T20:39:39.308Z,54.20
2023-02-24T20:44:36.242Z,55.28
2023-02-24T20:49:33.336Z,50.75
2023-02-24T20:54:30.404Z,57.70
2023-02-24T20:59:28.045Z,51.40
2023-02-24T21:04:24.972Z,59.08
2023-02-24T21:09:21.974Z,52.50
2023-02-24T21:14:19.651Z,54.75
2023-02-24T21:19:19.655Z,55.33
2023-02-24T21:24:17.482Z,55.90
2023-02-24T21:29:14.425Z,56.38
2023-02-24T21:34:11.494Z,56.95
2023-02-24T21:39:13.865Z,52.33
2023-02-24T21:44:11.989Z,44.30
2023-02-24T21:49:13.706Z,50.58
2023-02-24T21:54:12.166Z,47.78
2023-02-24T21:59:10.603Z,54.45
2023-02-24T22:04:09.996Z,50.70
2023-02-24T22:09:08.718Z,47.75
2023-02-24T22:14:08.248Z,52.50
2023-02-24T22:19:06.055Z,50.45
2023-02-24T22:24:03.836Z,55.75
2023-02-24T22:29:01.662Z,55.60
2023-02-24T22:34:00.251Z,46.97
2023-02-24T22:38:59.350Z,51.85
2023-02-24T22:43:56.673Z,45.10
2023-02-24T22:48:53.837Z,49.90
2023-02-24T22:53:52.233Z,52.38
2023-02-24T22:58:49.405Z,52.40
2023-02-24T23:03:46.383Z,47.03
2023-02-24T23:08:46.162Z,49.17
2023-02-24T23:13:47.290Z,47.72
2023-02-24T23:18:47.946Z,51.95
2023-02-24T23:23:46.239Z,46.78
2023-02-24T23:28:44.276Z,60.17
2023-02-24T23:33:43.398Z,50.83
2023-02-24T23:38:40.500Z,53.22
2023-02-24T23:43:38.268Z,50.80
2023-02-24T23:48:36.546Z,48.63
2023-02-24T23:53:37.077Z,47.85
2023-02-24T23:58:34.106Z,45.05
